createdAt,value
2024-01-15T00:00:57.977Z,630.00
2024-01-15T00:01:57.756Z,630.00
2024-01-15T00:02:57.757Z,632.00
2024-01-15T00:03:57.866Z,630.00
2024-01-15T00:04:57.853Z,629.00
2024-01-15T00:05:57.959Z,632.00
2024-01-15T00:06:57.961Z,631.00
2024-01-15T00:07:57.901Z,631.00
2024-01-15T00:08:57.969Z,633.00
2024-01-15T00:09:58.064Z,632.00
2024-01-15T00:10:58.072Z,630.00
2024-01-15T00:11:58.138Z,628.00
2024-01-15T00:12:58.229Z,634.00
2024-01-15T00:13:58.302Z,630.00
2024-01-15T00:14:58.447Z,631.00
2024-01-15T00:15:58.487Z,634.00
2024-01-15T00:16:58.543Z,633.00
2024-01-15T00:17:58.611Z,634.00
2024-01-15T00:18:58.657Z,632.00
2024-01-15T00:19:58.759Z,631.00
2024-01-15T00:20:58.748Z,632.00
2024-01-15T00:21:58.820Z,632.00
2024-01-15T00:22:58.869Z,632.00
2024-01-15T00:23:58.928Z,633.00
2024-01-15T00:24:58.991Z,632.00
2024-01-15T00:25:59.097Z,636.00
2024-01-15T00:26:59.167Z,634.00
2024-01-15T00:27:59.270Z,630.00
2024-01-15T00:28:59.333Z,632.00
2024-01-15T00:29:59.330Z,635.00
2024-01-15T00:30:59.541Z,634.00
2024-01-15T00:31:59.495Z,634.00
2024-01-15T00:32:59.692Z,632.00
2024-01-15T00:33:59.971Z,633.00
2024-01-15T00:34:59.721Z,632.00
2024-01-15T00:35:59.797Z,630.00
2024-01-15T00:36:59.864Z,631.00
2024-01-15T00:37:59.902Z,631.00
2024-01-15T00:38:59.961Z,633.00
2024-01-15T00:40:00.039Z,631.00
2024-01-15T00:41:00.178Z,631.00
2024-01-15T00:42:00.243Z,630.00
2024-01-15T00:43:00.206Z,632.00
2024-01-15T00:44:00.250Z,633.00
2024-01-15T00:45:00.392Z,630.00
2024-01-15T00:46:00.419Z,630.00
2024-01-15T00:47:00.552Z,630.00
2024-01-15T00:48:00.707Z,630.00
2024-01-15T00:49:00.806Z,630.00
2024-01-15T00:50:00.708Z,631.00
2024-01-15T00:51:00.766Z,632.00
2024-01-15T00:52:00.810Z,630.00
2024-01-15T00:53:00.869Z,629.00
2024-01-15T00:54:00.979Z,631.00
2024-01-15T00:55:01.046Z,630.00
2024-01-15T00:56:01.045Z,631.00
2024-01-15T00:57:01.182Z,629.00
2024-01-15T00:58:01.234Z,629.00
2024-01-15T00:59:01.280Z,629.00
2024-01-15T01:00:03.904Z,630.00
2024-01-15T01:01:01.369Z,630.00
2024-01-15T01:02:01.295Z,630.00
2024-01-15T01:03:01.401Z,630.00
2024-01-15T01:04:01.402Z,630.00
2024-01-15T01:05:01.376Z,629.00
2024-01-15T01:06:01.341Z,630.00
2024-01-15T01:07:01.293Z,630.00
2024-01-15T01:08:01.274Z,626.00
2024-01-15T01:09:01.302Z,630.00
2024-01-15T01:10:01.348Z,630.00
2024-01-15T01:11:01.301Z,630.00
2024-01-15T01:12:01.316Z,626.00
2024-01-15T01:13:01.270Z,629.00
2024-01-15T01:14:01.281Z,628.00
2024-01-15T01:15:01.643Z,629.00
2024-01-15T01:16:01.308Z,628.00
2024-01-15T01:17:01.405Z,628.00
2024-01-15T01:18:01.568Z,630.00
2024-01-15T01:19:01.696Z,629.00
2024-01-15T01:20:01.804Z,629.00
2024-01-15T01:21:01.521Z,629.00
2024-01-15T01:22:01.578Z,629.00
2024-01-15T01:23:01.642Z,628.00
2024-01-15T01:24:01.666Z,627.00
2024-01-15T01:25:01.717Z,628.00
2024-01-15T01:26:01.769Z,627.00
2024-01-15T01:27:01.777Z,627.00
2024-01-15T01:28:02.017Z,630.00
2024-01-15T01:29:01.949Z,627.00
2024-01-15T01:30:01.938Z,628.00
2024-01-15T01:31:02.112Z,627.00
2024-01-15T01:32:02.064Z,629.00
2024-01-15T01:33:02.146Z,627.00
2024-01-15T01:34:02.303Z,627.00
2024-01-15T01:35:02.266Z,625.00
2024-01-15T01:36:02.305Z,628.00
2024-01-15T01:37:02.366Z,627.00
2024-01-15T01:38:02.356Z,627.00
2024-01-15T01:39:02.429Z,628.00
2024-01-15T01:40:02.499Z,626.00
2024-01-15T01:41:02.583Z,625.00
2024-01-15T01:42:02.620Z,627.00
2024-01-15T01:43:02.662Z,626.00
2024-01-15T01:44:02.685Z,626.00
2024-01-15T01:45:02.757Z,626.00
2024-01-15T01:46:02.833Z,625.00
2024-01-15T01:47:02.808Z,626.00
2024-01-15T01:48:02.881Z,626.00
2024-01-15T01:49:02.846Z,626.00
2024-01-15T01:50:02.862Z,628.00
2024-01-15T01:51:02.994Z,626.00
2024-01-15T01:52:02.919Z,629.00
2024-01-15T01:53:02.934Z,628.00
2024-01-15T01:54:02.932Z,629.00
2024-01-15T01:55:03.010Z,629.00
2024-01-15T01:56:03.003Z,631.00
2024-01-15T01:57:03.020Z,632.00
2024-01-15T01:58:03.055Z,630.00
2024-01-15T01:59:03.061Z,628.00
2024-01-15T02:00:03.082Z,628.00
2024-01-15T02:01:03.413Z,628.00
2024-01-15T02:02:03.172Z,629.00
2024-01-15T02:03:03.184Z,631.00
2024-01-15T02:04:03.355Z,630.00
2024-01-15T02:05:03.329Z,631.00
2024-01-15T02:06:03.323Z,629.00
2024-01-15T02:07:03.364Z,632.00
2024-01-15T02:08:03.326Z,630.00
2024-01-15T02:09:03.357Z,629.00
2024-01-15T02:10:03.346Z,631.00
2024-01-15T02:11:03.426Z,631.00
2024-01-15T02:12:03.467Z,630.00
2024-01-15T02:13:03.478Z,631.00
2024-01-15T02:14:03.491Z,631.00
2024-01-15T02:15:03.567Z,630.00
2024-01-15T02:16:03.550Z,629.00
2024-01-15T02:17:03.552Z,631.00
2024-01-15T02:18:03.642Z,633.00
2024-01-15T02:19:03.716Z,632.00
2024-01-15T02:20:03.688Z,634.00
2024-01-15T02:21:04.012Z,633.00
2024-01-15T02:22:03.705Z,632.00
2024-01-15T02:23:03.741Z,635.00
2024-01-15T02:24:03.746Z,634.00
2024-01-15T02:25:03.755Z,634.00
2024-01-15T02:26:03.819Z,635.00
2024-01-15T02:27:03.775Z,634.00
2024-01-15T02:28:03.828Z,634.00
2024-01-15T02:29:03.831Z,635.00
2024-01-15T02:30:04.095Z,635.00
2024-01-15T02:31:04.050Z,634.00
2024-01-15T02:32:03.895Z,634.00
2024-01-15T02:33:03.934Z,635.00
2024-01-15T02:34:04.197Z,635.00
2024-01-15T02:35:03.937Z,634.00
2024-01-15T02:36:03.934Z,636.00
2024-01-15T02:37:03.997Z,636.00
2024-01-15T02:38:03.946Z,636.00
2024-01-15T02:39:04.046Z,634.00
2024-01-15T02:40:04.012Z,634.00
2024-01-15T02:41:04.031Z,635.00
2024-01-15T02:42:04.085Z,636.00
2024-01-15T02:43:04.044Z,635.00
2024-01-15T02:44:04.043Z,635.00
2024-01-15T02:45:04.043Z,636.00
2024-01-15T02:46:04.116Z,636.00
2024-01-15T02:47:04.133Z,636.00
2024-01-15T02:48:04.166Z,635.00
2024-01-15T02:49:04.339Z,636.00
2024-01-15T02:50:04.265Z,636.00
2024-01-15T02:51:04.185Z,635.00
2024-01-15T02:52:04.209Z,634.00
2024-01-15T02:53:04.227Z,637.00
2024-01-15T02:54:04.272Z,635.00
2024-01-15T02:55:04.271Z,636.00
2024-01-15T02:56:04.358Z,635.00
2024-01-15T02:57:04.337Z,636.00
2024-01-15T02:58:04.351Z,635.00
2024-01-15T02:59:04.342Z,636.00
2024-01-15T03:00:04.391Z,638.00
2024-01-15T03:01:04.483Z,636.00
2024-01-15T03:02:04.371Z,638.00
2024-01-15T03:03:04.546Z,639.00
2024-01-15T03:04:04.612Z,639.00
2024-01-15T03:05:04.458Z,637.00
2024-01-15T03:06:04.473Z,638.00
2024-01-15T03:07:04.394Z,638.00
2024-01-15T03:08:04.401Z,637.00
2024-01-15T03:09:04.422Z,636.00
2024-01-15T03:10:04.429Z,637.00
2024-01-15T03:11:04.438Z,636.00
2024-01-15T03:12:04.466Z,637.00
2024-01-15T03:13:04.412Z,637.00
2024-01-15T03:14:04.454Z,638.00
2024-01-15T03:15:04.498Z,638.00
2024-01-15T03:16:04.501Z,638.00
2024-01-15T03:17:04.536Z,638.00
2024-01-15T03:18:04.615Z,640.00
2024-01-15T03:19:04.628Z,639.00
2024-01-15T03:20:04.665Z,639.00
2024-01-15T03:21:04.553Z,638.00
2024-01-15T03:22:04.582Z,637.00
2024-01-15T03:23:04.585Z,639.00
2024-01-15T03:24:04.598Z,639.00
2024-01-15T03:25:04.564Z,639.00
2024-01-15T03:26:04.586Z,640.00
2024-01-15T03:27:04.593Z,640.00
2024-01-15T03:28:04.629Z,638.00
2024-01-15T03:29:04.654Z,636.00
2024-01-15T03:30:04.687Z,638.00
2024-01-15T03:31:04.743Z,638.00
2024-01-15T03:32:04.656Z,639.00
2024-01-15T03:33:04.718Z,638.00
2024-01-15T03:34:04.811Z,640.00
2024-01-15T03:35:04.789Z,641.00
2024-01-15T03:36:04.721Z,640.00
2024-01-15T03:37:04.742Z,640.00
2024-01-15T03:38:04.719Z,641.00
2024-01-15T03:39:04.785Z,639.00
2024-01-15T03:40:04.786Z,641.00
2024-01-15T03:41:04.745Z,639.00
2024-01-15T03:42:04.816Z,640.00
2024-01-15T03:43:04.764Z,642.00
2024-01-15T03:44:04.770Z,639.00
2024-01-15T03:45:04.827Z,639.00
2024-01-15T03:46:04.829Z,639.00
2024-01-15T03:47:04.838Z,640.00
2024-01-15T03:48:04.957Z,639.00
2024-01-15T03:49:04.919Z,640.00
2024-01-15T03:50:04.856Z,642.00
2024-01-15T03:51:04.866Z,641.00
2024-01-15T03:52:04.870Z,639.00
2024-01-15T03:53:04.887Z,639.00
2024-01-15T03:54:04.887Z,638.00
2024-01-15T03:55:04.921Z,639.00
2024-01-15T03:56:04.883Z,640.00
2024-01-15T03:57:04.973Z,642.00
2024-01-15T03:58:04.998Z,641.00
2024-01-15T03:59:05.557Z,638.00
2024-01-15T04:00:04.967Z,639.00
2024-01-15T04:01:05.126Z,639.00
2024-01-15T04:02:04.979Z,639.00
2024-01-15T04:03:05.149Z,639.00
2024-01-15T04:04:05.140Z,640.00
2024-01-15T04:05:05.038Z,640.00
2024-01-15T04:06:05.107Z,641.00
2024-01-15T04:07:05.099Z,639.00
2024-01-15T04:08:05.103Z,640.00
2024-01-15T04:09:05.162Z,641.00
2024-01-15T04:10:05.086Z,641.00
2024-01-15T04:11:05.090Z,641.00
2024-01-15T04:12:05.092Z,640.00
2024-01-15T04:13:05.136Z,641.00
2024-01-15T04:14:05.108Z,640.00
2024-01-15T04:15:05.133Z,641.00
2024-01-15T04:16:05.116Z,641.00
2024-01-15T04:17:12.929Z,600.00
2024-01-15T04:18:12.971Z,600.00
2024-01-15T04:19:12.965Z,600.00
2024-01-15T04:20:12.907Z,600.00
2024-01-15T04:21:12.928Z,600.00
2024-01-15T04:22:12.895Z,600.00
2024-01-15T04:23:12.926Z,600.00
2024-01-15T04:24:12.948Z,601.00
2024-01-15T04:25:52.297Z,600.00
2024-01-15T04:26:52.298Z,600.00
2024-01-15T04:27:52.353Z,600.00
2024-01-15T04:28:52.265Z,600.00
2024-01-15T04:29:52.270Z,600.00
2024-01-15T04:30:52.381Z,603.00
2024-01-15T04:32:00.196Z,600.00
2024-01-15T04:33:00.197Z,600.00
2024-01-15T04:34:00.209Z,600.00
2024-01-15T04:35:00.113Z,600.00
2024-01-15T04:36:00.104Z,600.00
2024-01-15T04:37:00.667Z,600.00
2024-01-15T04:38:00.149Z,600.00
2024-01-15T04:39:00.113Z,600.00
2024-01-15T04:40:00.286Z,600.00
2024-01-15T04:41:00.161Z,602.00
2024-01-15T04:42:00.069Z,601.00
2024-01-15T04:43:00.164Z,600.00
2024-01-15T04:44:00.143Z,602.00
2024-01-15T04:45:00.191Z,601.00
2024-01-15T04:46:00.216Z,601.00
2024-01-15T04:47:00.693Z,600.00
2024-01-15T04:48:00.190Z,600.00
2024-01-15T04:49:00.246Z,601.00
2024-01-15T04:50:00.288Z,602.00
2024-01-15T04:51:00.108Z,601.00
2024-01-15T04:52:00.163Z,600.00
2024-01-15T04:53:00.194Z,601.00
2024-01-15T04:54:00.223Z,601.00
2024-01-15T04:55:00.155Z,601.00
2024-01-15T04:56:00.243Z,600.00
2024-01-15T04:57:00.198Z,603.00
2024-01-15T04:58:00.171Z,601.00
2024-01-15T04:59:00.271Z,602.00
2024-01-15T05:00:00.181Z,601.00
2024-01-15T05:01:00.350Z,601.00
2024-01-15T05:02:00.188Z,603.00
2024-01-15T05:03:00.263Z,602.00
2024-01-15T05:04:00.649Z,601.00
2024-01-15T05:05:00.232Z,601.00
2024-01-15T05:06:00.312Z,601.00
2024-01-15T05:07:00.213Z,600.00
2024-01-15T05:08:00.189Z,601.00
2024-01-15T05:09:00.220Z,605.00
2024-01-15T05:10:00.379Z,603.00
2024-01-15T05:11:00.196Z,607.00
2024-01-15T05:12:00.280Z,606.00
2024-01-15T05:13:00.212Z,604.00
2024-01-15T05:14:00.206Z,605.00
2024-01-15T05:15:00.342Z,605.00
2024-01-15T05:16:00.337Z,604.00
2024-01-15T05:17:00.196Z,603.00
2024-01-15T05:18:00.391Z,603.00
2024-01-15T05:19:00.309Z,603.00
2024-01-15T05:20:00.698Z,600.00
2024-01-15T05:21:00.239Z,601.00
2024-01-15T05:22:00.225Z,601.00
2024-01-15T05:23:00.175Z,603.00
2024-01-15T05:24:00.229Z,602.00
2024-01-15T05:25:00.371Z,602.00
2024-01-15T05:26:00.182Z,602.00
2024-01-15T05:27:00.195Z,602.00
2024-01-15T05:28:00.209Z,602.00
2024-01-15T05:29:00.221Z,602.00
2024-01-15T05:30:00.274Z,601.00
2024-01-15T05:31:00.321Z,601.00
2024-01-15T05:32:02.574Z,601.00
2024-01-15T05:33:00.378Z,600.00
2024-01-15T05:34:00.230Z,600.00
2024-01-15T05:35:00.384Z,600.00
2024-01-15T05:36:00.267Z,600.00
2024-01-15T05:37:00.222Z,600.00
2024-01-15T05:38:00.239Z,601.00
2024-01-15T05:39:00.229Z,603.00
2024-01-15T05:40:00.501Z,601.00
2024-01-15T05:41:00.249Z,600.00
2024-01-15T05:42:00.227Z,606.00
2024-01-15T05:43:00.319Z,604.00
2024-01-15T05:44:00.246Z,604.00
2024-01-15T05:45:00.275Z,604.00
2024-01-15T05:46:00.313Z,604.00
2024-01-15T05:47:00.318Z,604.00
2024-01-15T05:48:00.406Z,600.00
2024-01-15T05:49:00.446Z,605.00
2024-01-15T05:50:00.351Z,607.00
2024-01-15T05:51:00.268Z,606.00
2024-01-15T05:52:00.252Z,606.00
2024-01-15T05:53:00.314Z,606.00
2024-01-15T05:54:00.223Z,601.00
2024-01-15T05:55:00.275Z,602.00
2024-01-15T05:56:00.235Z,602.00
2024-01-15T05:57:00.238Z,604.00
2024-01-15T05:58:00.353Z,605.00
2024-01-15T05:59:00.266Z,604.00
2024-01-15T06:00:00.430Z,604.00
2024-01-15T06:01:00.402Z,605.00
2024-01-15T06:02:00.286Z,604.00
2024-01-15T06:03:00.258Z,601.00
2024-01-15T06:04:00.496Z,605.00
2024-01-15T06:05:00.424Z,604.00
2024-01-15T06:06:00.315Z,600.00
2024-01-15T06:07:00.278Z,603.00
2024-01-15T06:08:00.340Z,605.00
2024-01-15T06:09:00.267Z,617.00
2024-01-15T06:10:00.393Z,632.00
2024-01-15T06:11:02.211Z,650.00
2024-01-15T06:12:00.293Z,663.00
2024-01-15T06:13:00.345Z,671.00
2024-01-15T06:14:00.282Z,678.00
2024-01-15T06:15:00.358Z,690.00
2024-01-15T06:16:00.463Z,696.00
2024-01-15T06:17:00.495Z,701.00
2024-01-15T06:18:00.716Z,692.00
2024-01-15T06:19:00.830Z,692.00
2024-01-15T06:20:00.678Z,685.00
2024-01-15T06:21:00.636Z,684.00
2024-01-15T06:22:01.002Z,685.00
2024-01-15T06:23:00.778Z,677.00
2024-01-15T06:24:00.836Z,671.00
2024-01-15T06:25:00.806Z,668.00
2024-01-15T06:26:00.842Z,666.00
2024-01-15T06:27:00.888Z,665.00
2024-01-15T06:28:01.017Z,668.00
2024-01-15T06:29:00.978Z,674.00
2024-01-15T06:30:01.009Z,684.00
2024-01-15T06:31:01.156Z,688.00
2024-01-15T06:32:01.138Z,690.00
2024-01-15T06:33:01.200Z,677.00
2024-01-15T06:34:01.258Z,662.00
2024-01-15T06:35:01.224Z,657.00
2024-01-15T06:36:01.232Z,650.00
2024-01-15T06:37:01.396Z,642.00
2024-01-15T06:38:01.395Z,633.00
2024-01-15T06:39:01.295Z,620.00
2024-01-15T06:40:01.468Z,620.00
2024-01-15T06:41:01.337Z,613.00
2024-01-15T06:42:01.715Z,610.00
2024-01-15T06:43:01.416Z,610.00
2024-01-15T06:44:01.390Z,617.00
2024-01-15T06:45:01.405Z,621.00
2024-01-15T06:46:04.219Z,626.00
2024-01-15T06:47:02.536Z,626.00
2024-01-15T06:48:01.568Z,626.00
2024-01-15T06:49:01.962Z,626.00
2024-01-15T06:50:02.195Z,626.00
2024-01-15T06:51:02.710Z,627.00
2024-01-15T06:52:02.335Z,627.00
2024-01-15T06:53:01.464Z,628.00
2024-01-15T06:54:01.445Z,630.00
2024-01-15T06:55:01.607Z,631.00
2024-01-15T06:56:01.732Z,632.00
2024-01-15T06:57:01.476Z,634.00
2024-01-15T06:58:01.891Z,637.00
2024-01-15T06:59:01.521Z,637.00
2024-01-15T07:00:01.562Z,641.00
2024-01-15T07:01:01.684Z,644.00
2024-01-15T07:02:01.617Z,643.00
2024-01-15T07:03:01.876Z,647.00
2024-01-15T07:04:01.698Z,648.00
2024-01-15T07:05:04.347Z,651.00
2024-01-15T07:06:01.738Z,655.00
2024-01-15T07:07:01.773Z,659.00
2024-01-15T07:08:03.297Z,660.00
2024-01-15T07:09:01.788Z,665.00
2024-01-15T07:10:02.284Z,665.00
2024-01-15T07:11:01.820Z,673.00
2024-01-15T07:12:01.784Z,678.00
2024-01-15T07:13:01.787Z,684.00
2024-01-15T07:14:02.261Z,696.00
2024-01-15T07:15:01.847Z,697.00
2024-01-15T07:16:01.840Z,703.00
2024-01-15T07:17:01.817Z,705.00
2024-01-15T07:18:02.312Z,714.00
2024-01-15T07:19:01.838Z,720.00
2024-01-15T07:20:02.427Z,724.00
2024-01-15T07:21:01.791Z,724.00
2024-01-15T07:22:01.820Z,725.00
2024-01-15T07:23:01.786Z,735.00
2024-01-15T07:24:02.118Z,736.00
2024-01-15T07:25:02.920Z,738.00
2024-01-15T07:26:03.056Z,747.00
2024-01-15T07:27:01.830Z,760.00
2024-01-15T07:28:02.253Z,752.00
2024-01-15T07:29:01.802Z,761.00
2024-01-15T07:30:02.685Z,759.00
2024-01-15T07:31:01.809Z,752.00
2024-01-15T07:32:01.855Z,802.00
2024-01-15T07:33:02.009Z,837.00
2024-01-15T07:34:02.051Z,847.00
2024-01-15T07:35:01.883Z,844.00
2024-01-15T07:36:03.633Z,857.00
2024-01-15T07:37:02.341Z,867.00
2024-01-15T07:38:01.800Z,870.00
2024-01-15T07:39:01.867Z,870.00
2024-01-15T07:40:02.362Z,884.00
2024-01-15T07:41:01.907Z,897.00
2024-01-15T07:42:02.348Z,916.00
2024-01-15T07:43:02.134Z,903.00
2024-01-15T07:44:02.143Z,904.00
2024-01-15T07:45:02.129Z,893.00
2024-01-15T07:46:02.225Z,886.00
2024-01-15T07:47:02.377Z,870.00
2024-01-15T07:48:02.346Z,863.00
2024-01-15T07:49:02.909Z,861.00
2024-01-15T07:50:05.719Z,839.00
2024-01-15T07:51:03.084Z,839.00
2024-01-15T07:52:02.517Z,827.00
2024-01-15T07:53:02.314Z,837.00
2024-01-15T07:54:02.305Z,831.00
2024-01-15T07:55:02.573Z,822.00
2024-01-15T07:56:03.562Z,806.00
2024-01-15T07:57:02.354Z,796.00
2024-01-15T07:58:11.393Z,808.00
2024-01-15T07:59:03.887Z,808.00
2024-01-15T08:00:03.124Z,794.00
2024-01-15T08:01:02.464Z,787.00
2024-01-15T08:02:02.469Z,792.00
2024-01-15T08:03:02.273Z,778.00
2024-01-15T08:04:02.899Z,772.00
2024-01-15T08:05:04.395Z,775.00
2024-01-15T08:06:02.512Z,772.00
2024-01-15T08:07:05.414Z,770.00
2024-01-15T08:08:02.310Z,772.00
2024-01-15T08:09:02.297Z,772.00
2024-01-15T08:10:03.862Z,757.00
2024-01-15T08:11:02.312Z,758.00
2024-01-15T08:12:02.298Z,754.00
2024-01-15T08:13:03.207Z,760.00
2024-01-15T08:14:02.387Z,750.00
2024-01-15T08:15:02.755Z,748.00
2024-01-15T08:16:02.321Z,750.00
2024-01-15T08:17:02.479Z,746.00
2024-01-15T08:18:06.871Z,745.00
2024-01-15T08:19:04.934Z,745.00
2024-01-15T08:20:03.227Z,746.00
2024-01-15T08:21:04.400Z,744.00
2024-01-15T08:22:02.290Z,736.00
2024-01-15T08:23:02.427Z,725.00
2024-01-15T08:24:02.422Z,726.00
2024-01-15T08:25:03.033Z,738.00
2024-01-15T08:26:02.326Z,714.00
2024-01-15T08:27:02.730Z,719.00
2024-01-15T08:28:02.334Z,723.00
2024-01-15T08:29:03.914Z,729.00
2024-01-15T08:30:02.978Z,719.00
2024-01-15T08:31:02.901Z,718.00
2024-01-15T08:32:02.451Z,719.00
2024-01-15T08:33:08.498Z,714.00
2024-01-15T08:34:03.504Z,714.00
2024-01-15T08:35:02.550Z,715.00
2024-01-15T08:36:02.389Z,710.00
2024-01-15T08:37:02.908Z,712.00
2024-01-15T08:38:02.401Z,712.00
2024-01-15T08:39:02.319Z,708.00
2024-01-15T08:40:02.393Z,705.00
2024-01-15T08:41:02.422Z,714.00
2024-01-15T08:42:02.360Z,715.00
2024-01-15T08:43:02.294Z,711.00
2024-01-15T08:44:03.348Z,710.00
2024-01-15T08:45:03.348Z,714.00
2024-01-15T08:46:03.512Z,709.00
2024-01-15T08:47:04.756Z,715.00
2024-01-15T08:48:02.484Z,706.00
2024-01-15T08:49:04.972Z,695.00
2024-01-15T08:50:02.436Z,695.00
2024-01-15T08:51:02.380Z,680.00
2024-01-15T08:52:02.897Z,678.00
2024-01-15T08:53:02.806Z,675.00
2024-01-15T08:54:02.623Z,705.00
2024-01-15T08:55:02.584Z,727.00
2024-01-15T08:56:02.434Z,753.00
2024-01-15T08:57:02.970Z,765.00
2024-01-15T08:58:03.446Z,764.00
2024-01-15T08:59:03.527Z,763.00
2024-01-15T09:00:05.265Z,753.00
2024-01-15T09:01:03.641Z,745.00
2024-01-15T09:02:02.862Z,733.00
2024-01-15T09:03:02.378Z,727.00
2024-01-15T09:04:05.235Z,718.00
2024-01-15T09:05:03.564Z,723.00
2024-01-15T09:06:02.498Z,713.00
2024-01-15T09:07:06.875Z,694.00
2024-01-15T09:08:02.509Z,689.00
2024-01-15T09:09:02.419Z,676.00
2024-01-15T09:10:03.896Z,672.00
2024-01-15T09:11:06.176Z,666.00
2024-01-15T09:12:04.902Z,669.00
2024-01-15T09:13:04.165Z,664.00
2024-01-15T09:14:02.488Z,668.00
2024-01-15T09:15:05.844Z,663.00
2024-01-15T09:16:02.734Z,664.00
2024-01-15T09:17:02.818Z,661.00
2024-01-15T09:18:05.442Z,655.00
2024-01-15T09:19:03.972Z,650.00
2024-01-15T09:20:07.984Z,653.00
2024-01-15T09:21:04.451Z,656.00
2024-01-15T09:22:05.479Z,655.00
2024-01-15T09:23:02.620Z,656.00
2024-01-15T09:24:02.623Z,647.00
2024-01-15T09:25:04.922Z,635.00
2024-01-15T09:26:02.651Z,626.00
2024-01-15T09:27:03.180Z,612.00
2024-01-15T09:28:02.571Z,605.00
2024-01-15T09:29:02.551Z,597.00
2024-01-15T09:30:02.622Z,593.00
2024-01-15T09:31:02.660Z,604.00
2024-01-15T09:32:02.642Z,602.00
2024-01-15T09:33:02.707Z,602.00
2024-01-15T09:34:02.692Z,606.00
2024-01-15T09:35:02.576Z,604.00
2024-01-15T09:36:02.893Z,604.00
2024-01-15T09:37:02.520Z,605.00
2024-01-15T09:38:02.535Z,600.00
2024-01-15T09:39:02.649Z,605.00
2024-01-15T09:40:02.635Z,606.00
2024-01-15T09:41:02.677Z,605.00
2024-01-15T09:42:04.492Z,600.00
2024-01-15T09:43:05.700Z,600.00
2024-01-15T09:44:02.605Z,600.00
2024-01-15T09:45:06.258Z,603.00
2024-01-15T09:46:02.774Z,603.00
2024-01-15T09:47:04.502Z,604.00
2024-01-15T09:48:02.663Z,604.00
2024-01-15T09:49:02.753Z,605.00
2024-01-15T09:50:02.619Z,604.00
2024-01-15T09:51:02.810Z,602.00
2024-01-15T09:52:06.391Z,600.00
2024-01-15T09:53:04.451Z,600.00
2024-01-15T09:54:02.623Z,600.00
2024-01-15T09:55:02.908Z,602.00
2024-01-15T09:56:05.374Z,603.00
2024-01-15T09:57:03.343Z,603.00
2024-01-15T09:58:02.672Z,601.00
2024-01-15T09:59:04.329Z,605.00
2024-01-15T10:00:03.738Z,608.00
2024-01-15T10:01:06.113Z,609.00
2024-01-15T10:02:03.639Z,609.00
2024-01-15T10:03:02.716Z,609.00
2024-01-15T10:04:03.125Z,611.00
2024-01-15T10:05:03.038Z,610.00
2024-01-15T10:06:02.674Z,614.00
2024-01-15T10:07:04.570Z,612.00
2024-01-15T10:08:02.605Z,618.00
2024-01-15T10:09:02.708Z,617.00
2024-01-15T10:10:03.676Z,619.00
2024-01-15T10:11:02.708Z,620.00
2024-01-15T10:12:02.944Z,618.00
2024-01-15T10:13:02.822Z,621.00
2024-01-15T10:14:03.276Z,625.00
2024-01-15T10:15:02.885Z,623.00
2024-01-15T10:16:02.721Z,626.00
2024-01-15T10:17:02.876Z,629.00
2024-01-15T10:18:02.924Z,630.00
2024-01-15T10:19:04.270Z,635.00
2024-01-15T10:20:02.975Z,641.00
2024-01-15T10:21:03.325Z,661.00
2024-01-15T10:22:03.856Z,696.00
2024-01-15T10:23:03.340Z,728.00
2024-01-15T10:24:03.024Z,740.00
2024-01-15T10:25:03.061Z,743.00
2024-01-15T10:26:03.099Z,739.00
2024-01-15T10:27:03.877Z,738.00
2024-01-15T10:28:04.096Z,736.00
2024-01-15T10:29:03.253Z,744.00
2024-01-15T10:30:03.382Z,734.00
2024-01-15T10:31:03.535Z,714.00
2024-01-15T10:32:03.556Z,712.00
2024-01-15T10:33:04.039Z,717.00
2024-01-15T10:34:03.711Z,709.00
2024-01-15T10:35:03.767Z,718.00
2024-01-15T10:36:03.735Z,718.00
2024-01-15T10:37:05.175Z,709.00
2024-01-15T10:38:05.559Z,709.00
2024-01-15T10:39:05.490Z,702.00
2024-01-15T10:40:04.029Z,710.00
2024-01-15T10:41:04.400Z,715.00
2024-01-15T10:42:04.003Z,712.00
2024-01-15T10:43:04.193Z,716.00
2024-01-15T10:44:04.283Z,712.00
2024-01-15T10:45:05.970Z,716.00
2024-01-15T10:46:04.530Z,716.00
2024-01-15T10:47:04.936Z,720.00
2024-01-15T10:48:04.766Z,715.00
2024-01-15T10:49:05.209Z,738.00
2024-01-15T10:50:08.650Z,731.00
2024-01-15T10:51:06.214Z,729.00
2024-01-15T10:52:05.455Z,731.00
2024-01-15T10:53:04.560Z,730.00
2024-01-15T10:54:04.510Z,726.00
2024-01-15T10:55:08.694Z,730.00
2024-01-15T10:56:05.486Z,731.00
2024-01-15T10:57:04.414Z,733.00
2024-01-15T10:58:04.474Z,732.00
2024-01-15T10:59:04.613Z,739.00
2024-01-15T11:00:05.572Z,748.00
2024-01-15T11:01:05.517Z,751.00
2024-01-15T11:02:06.371Z,755.00
2024-01-15T11:03:19.884Z,757.00
2024-01-15T11:04:05.411Z,758.00
2024-01-15T11:05:04.918Z,762.00
2024-01-15T11:06:04.494Z,765.00
2024-01-15T11:07:04.746Z,772.00
2024-01-15T11:08:04.752Z,780.00
2024-01-15T11:09:05.941Z,775.00
2024-01-15T11:10:05.087Z,765.00
2024-01-15T11:11:07.347Z,780.00
2024-01-15T11:12:04.587Z,779.00
2024-01-15T11:13:04.529Z,781.00
2024-01-15T11:14:04.430Z,765.00
2024-01-15T11:15:04.925Z,781.00
2024-01-15T11:16:04.866Z,773.00
2024-01-15T11:17:04.396Z,779.00
2024-01-15T11:18:05.518Z,778.00
2024-01-15T11:19:05.282Z,785.00
2024-01-15T11:20:05.708Z,785.00
2024-01-15T11:21:06.428Z,771.00
2024-01-15T11:22:04.619Z,772.00
2024-01-15T11:23:04.955Z,782.00
2024-01-15T11:24:05.909Z,777.00
2024-01-15T11:25:05.525Z,761.00
2024-01-15T11:26:04.969Z,768.00
2024-01-15T11:27:04.772Z,777.00
2024-01-15T11:28:04.958Z,768.00
2024-01-15T11:29:05.869Z,777.00
2024-01-15T11:30:05.144Z,765.00
2024-01-15T11:31:05.186Z,763.00
2024-01-15T11:32:05.074Z,803.00
2024-01-15T11:33:05.282Z,835.00
2024-01-15T11:34:05.450Z,836.00
2024-01-15T11:35:05.398Z,840.00
2024-01-15T11:36:05.371Z,845.00
2024-01-15T11:37:05.405Z,829.00
2024-01-15T11:38:05.915Z,819.00
2024-01-15T11:39:05.317Z,806.00
2024-01-15T11:40:05.553Z,786.00
2024-01-15T11:41:05.387Z,779.00
2024-01-15T11:42:06.568Z,774.00
2024-01-15T11:43:06.616Z,771.00
2024-01-15T11:44:07.711Z,753.00
2024-01-15T11:45:06.744Z,746.00
2024-01-15T11:46:05.673Z,748.00
2024-01-15T11:47:05.642Z,750.00
2024-01-15T11:48:05.777Z,743.00
2024-01-15T11:49:06.485Z,722.00
2024-01-15T11:50:05.952Z,706.00
2024-01-15T11:51:05.859Z,685.00
2024-01-15T11:52:05.867Z,674.00
2024-01-15T11:53:07.594Z,660.00
2024-01-15T11:54:05.895Z,653.00
2024-01-15T11:55:05.847Z,646.00
2024-01-15T11:56:06.004Z,643.00
2024-01-15T11:57:05.954Z,637.00
2024-01-15T11:58:05.908Z,629.00
2024-01-15T11:59:06.950Z,621.00
2024-01-15T12:00:06.023Z,614.00
2024-01-15T12:01:06.980Z,611.00
2024-01-15T12:02:06.145Z,600.00
2024-01-15T12:03:06.403Z,601.00
2024-01-15T12:04:06.253Z,600.00
2024-01-15T12:05:06.240Z,600.00
2024-01-15T12:06:06.296Z,601.00
2024-01-15T12:07:06.382Z,602.00
2024-01-15T12:08:06.890Z,604.00
2024-01-15T12:09:06.311Z,606.00
2024-01-15T12:10:06.331Z,604.00
2024-01-15T12:11:07.455Z,603.00
2024-01-15T12:12:06.463Z,605.00
2024-01-15T12:13:06.942Z,601.00
2024-01-15T12:14:06.535Z,603.00
2024-01-15T12:15:06.655Z,600.00
2024-01-15T12:16:06.989Z,602.00
2024-01-15T12:17:06.672Z,600.00
2024-01-15T12:18:06.722Z,602.00
2024-01-15T12:19:06.796Z,601.00
2024-01-15T12:20:06.664Z,606.00
2024-01-15T12:21:06.693Z,606.00
2024-01-15T12:22:06.696Z,601.00
2024-01-15T12:23:08.770Z,606.00
2024-01-15T12:24:06.987Z,606.00
2024-01-15T12:25:07.144Z,606.00
2024-01-15T12:26:06.945Z,614.00
2024-01-15T12:27:07.042Z,623.00
2024-01-15T12:28:07.119Z,623.00
2024-01-15T12:29:07.067Z,627.00
2024-01-15T12:30:07.126Z,627.00